ENT79V EYVI-EPKT
Flight info
| Callsign | ENT79V |
|---|---|
| Flight time | 1h 1m |
| Altitude | 36000 |
| Route | UPASI DCT VABER L29 SUWGI M985 EVINA M66 KUKAM |
| Aircraft | B738/M-SDE2E3FGHIRWXY/LB1 |
Departure
| Time | 2026-05-08 18:07 |
|---|---|
| Airport | Vilnius International Airport (EYVI) |
Arrival
| Time | 2026-05-08 19:08 |
|---|---|
| Airport | Katowice Wojciech Korfanty International Airport (EPKT) |
| Time | Latitude | Longitude | Altitude | Speed | Heading |
|---|---|---|---|---|---|
| 2026-05-08 17:41 | 54.64085 | 25.28278 | 637 ft | 0 kts | 77° |
| 2026-05-08 17:58 | 54.64083 | 25.28265 | 642 ft | 4 kts | 77° |
| 2026-05-08 17:58 | 54.64078 | 25.28228 | 642 ft | 3 kts | 77° |
| 2026-05-08 17:59 | 54.64075 | 25.28189 | 638 ft | 4 kts | 126° |
| 2026-05-08 17:59 | 54.64093 | 25.28174 | 641 ft | 4 kts | 167° |
| 2026-05-08 17:59 | 54.64104 | 25.28170 | 636 ft | 0 kts | 167° |
| 2026-05-08 18:02 | 54.64098 | 25.28172 | 636 ft | 3 kts | 167° |
| 2026-05-08 18:02 | 54.64041 | 25.28195 | 644 ft | 10 kts | 167° |
| 2026-05-08 18:02 | 54.63962 | 25.28226 | 634 ft | 13 kts | 167° |
| 2026-05-08 18:03 | 54.63858 | 25.28267 | 629 ft | 17 kts | 167° |
| 2026-05-08 18:03 | 54.63726 | 25.28318 | 627 ft | 21 kts | 167° |
| 2026-05-08 18:03 | 54.63619 | 25.28361 | 629 ft | 15 kts | 166° |
| 2026-05-08 18:03 | 54.63517 | 25.28333 | 616 ft | 16 kts | 201° |
| 2026-05-08 18:04 | 54.63397 | 25.28249 | 614 ft | 21 kts | 202° |
| 2026-05-08 18:04 | 54.63250 | 25.28148 | 608 ft | 25 kts | 202° |
| 2026-05-08 18:04 | 54.63078 | 25.28029 | 612 ft | 28 kts | 201° |
| 2026-05-08 18:04 | 54.62884 | 25.27895 | 602 ft | 31 kts | 202° |
| 2026-05-08 18:05 | 54.62718 | 25.27780 | 600 ft | 24 kts | 202° |
| 2026-05-08 18:05 | 54.62573 | 25.27676 | 601 ft | 21 kts | 202° |
| 2026-05-08 18:05 | 54.62508 | 25.27672 | 603 ft | 8 kts | 149° |
| 2026-05-08 18:05 | 54.62461 | 25.27734 | 619 ft | 11 kts | 141° |
| 2026-05-08 18:06 | 54.62421 | 25.27852 | 609 ft | 12 kts | 79° |
| 2026-05-08 18:06 | 54.62505 | 25.27948 | 603 ft | 27 kts | 22° |
| 2026-05-08 18:06 | 54.62901 | 25.28222 | 601 ft | 95 kts | 22° |
| 2026-05-08 18:06 | 54.63695 | 25.28780 | 655 ft | 146 kts | 22° |
| 2026-05-08 18:07 | 54.64617 | 25.29433 | 1442 ft | 138 kts | 23° |
| 2026-05-08 18:07 | 54.65467 | 25.30017 | 2394 ft | 127 kts | 27° |
| 2026-05-08 18:07 | 54.66304 | 25.30595 | 3092 ft | 132 kts | 31° |
| 2026-05-08 18:07 | 54.67152 | 25.31177 | 3899 ft | 134 kts | 31° |
| 2026-05-08 18:08 | 54.68087 | 25.31832 | 4302 ft | 161 kts | 31° |
| 2026-05-08 18:08 | 54.69227 | 25.32628 | 4553 ft | 191 kts | 30° |
| 2026-05-08 18:08 | 54.70542 | 25.33529 | 4832 ft | 213 kts | 28° |
| 2026-05-08 18:08 | 54.71964 | 25.34493 | 5471 ft | 224 kts | 28° |
| 2026-05-08 18:09 | 54.73443 | 25.35497 | 6225 ft | 231 kts | 28° |
| 2026-05-08 18:09 | 54.74950 | 25.36523 | 6951 ft | 238 kts | 27° |
| 2026-05-08 18:09 | 54.76499 | 25.37578 | 7778 ft | 239 kts | 27° |
| 2026-05-08 18:09 | 54.78164 | 25.38164 | 8557 ft | 253 kts | 4° |
| 2026-05-08 18:10 | 54.79916 | 25.37479 | 9369 ft | 266 kts | 340° |
| 2026-05-08 18:10 | 54.81480 | 25.35493 | 9804 ft | 296 kts | 314° |
| 2026-05-08 18:10 | 54.82541 | 25.32341 | 10390 ft | 312 kts | 296° |
| 2026-05-08 18:10 | 54.83319 | 25.28727 | 10595 ft | 338 kts | 283° |
| 2026-05-08 18:11 | 54.83251 | 25.24601 | 11082 ft | 350 kts | 253° |
| 2026-05-08 18:11 | 54.82130 | 25.20902 | 11886 ft | 346 kts | 226° |
| 2026-05-08 18:11 | 54.80242 | 25.18409 | 12830 ft | 337 kts | 202° |
| 2026-05-08 18:11 | 54.78077 | 25.16890 | 13776 ft | 335 kts | 198° |
| 2026-05-08 18:12 | 54.75914 | 25.15470 | 14552 ft | 338 kts | 198° |
| 2026-05-08 18:12 | 54.73703 | 25.13986 | 15303 ft | 343 kts | 199° |
| 2026-05-08 18:12 | 54.71476 | 25.12423 | 16049 ft | 347 kts | 203° |
| 2026-05-08 18:12 | 54.69507 | 25.09953 | 16825 ft | 355 kts | 222° |
| 2026-05-08 18:13 | 54.67768 | 25.06914 | 17647 ft | 357 kts | 223° |
| 2026-05-08 18:13 | 54.66016 | 25.03832 | 18385 ft | 361 kts | 223° |
| 2026-05-08 18:13 | 54.64245 | 25.00735 | 19051 ft | 365 kts | 223° |
| 2026-05-08 18:13 | 54.62436 | 24.97596 | 19677 ft | 369 kts | 223° |
| 2026-05-08 18:14 | 54.60634 | 24.94491 | 20320 ft | 372 kts | 223° |
| 2026-05-08 18:14 | 54.58789 | 24.91322 | 20975 ft | 375 kts | 222° |
| 2026-05-08 18:14 | 54.56929 | 24.88138 | 21616 ft | 378 kts | 222° |
| 2026-05-08 18:14 | 54.55054 | 24.84932 | 22240 ft | 382 kts | 222° |
| 2026-05-08 18:15 | 54.53153 | 24.81690 | 22863 ft | 385 kts | 222° |
| 2026-05-08 18:15 | 54.51230 | 24.78416 | 23409 ft | 391 kts | 222° |
| 2026-05-08 18:15 | 54.49468 | 24.74807 | 23880 ft | 401 kts | 238° |
| 2026-05-08 18:15 | 54.48369 | 24.70365 | 24421 ft | 404 kts | 246° |
| 2026-05-08 18:16 | 54.47374 | 24.65824 | 24966 ft | 406 kts | 246° |
| 2026-05-08 18:16 | 54.46381 | 24.61331 | 25417 ft | 410 kts | 246° |
| 2026-05-08 18:16 | 54.45352 | 24.56742 | 25883 ft | 413 kts | 245° |
| 2026-05-08 18:16 | 54.44301 | 24.52118 | 26361 ft | 416 kts | 245° |
| 2026-05-08 18:17 | 54.43238 | 24.47477 | 26835 ft | 418 kts | 244° |
| 2026-05-08 18:17 | 54.42167 | 24.42829 | 27327 ft | 421 kts | 244° |
| 2026-05-08 18:17 | 54.41084 | 24.38134 | 27766 ft | 424 kts | 244° |
| 2026-05-08 18:17 | 54.39992 | 24.33412 | 28203 ft | 427 kts | 244° |
| 2026-05-08 18:18 | 54.38889 | 24.28660 | 28639 ft | 429 kts | 243° |
| 2026-05-08 18:18 | 54.37798 | 24.23863 | 29082 ft | 433 kts | 244° |
| 2026-05-08 18:18 | 54.36746 | 24.19059 | 29383 ft | 439 kts | 244° |
| 2026-05-08 18:18 | 54.35678 | 24.14118 | 29726 ft | 444 kts | 245° |
| 2026-05-08 18:19 | 54.34602 | 24.09126 | 29999 ft | 449 kts | 245° |
| 2026-05-08 18:19 | 54.33508 | 24.04076 | 30298 ft | 453 kts | 244° |
| 2026-05-08 18:19 | 54.32404 | 23.99001 | 30687 ft | 453 kts | 244° |
| 2026-05-08 18:19 | 54.31299 | 23.93947 | 31128 ft | 452 kts | 244° |
| 2026-05-08 18:20 | 54.30192 | 23.88906 | 31536 ft | 452 kts | 244° |
| 2026-05-08 18:20 | 54.29080 | 23.83866 | 31895 ft | 453 kts | 244° |
| 2026-05-08 18:20 | 54.27964 | 23.78825 | 32229 ft | 454 kts | 244° |
| 2026-05-08 18:20 | 54.26840 | 23.73758 | 32540 ft | 455 kts | 244° |
| 2026-05-08 18:21 | 54.25712 | 23.68685 | 32865 ft | 456 kts | 244° |
| 2026-05-08 18:21 | 54.24597 | 23.63680 | 33220 ft | 456 kts | 244° |
| 2026-05-08 18:21 | 54.23470 | 23.58629 | 33710 ft | 453 kts | 245° |
| 2026-05-08 18:21 | 54.22349 | 23.53617 | 34152 ft | 451 kts | 245° |
| 2026-05-08 18:22 | 54.21224 | 23.48600 | 34468 ft | 450 kts | 245° |
| 2026-05-08 18:22 | 54.20102 | 23.43611 | 34755 ft | 450 kts | 245° |
| 2026-05-08 18:22 | 54.18984 | 23.38694 | 35047 ft | 449 kts | 245° |
| 2026-05-08 18:22 | 54.17801 | 23.33763 | 35328 ft | 448 kts | 244° |
| 2026-05-08 18:23 | 54.16592 | 23.28868 | 35647 ft | 447 kts | 244° |
| 2026-05-08 18:23 | 54.15380 | 23.23991 | 35952 ft | 446 kts | 244° |
| 2026-05-08 18:23 | 54.14169 | 23.19113 | 36163 ft | 448 kts | 244° |
| 2026-05-08 18:23 | 54.12951 | 23.14188 | 36146 ft | 452 kts | 244° |
| 2026-05-08 18:24 | 54.10925 | 23.05971 | 36133 ft | 451 kts | 244° |
| 2026-05-08 18:24 | 54.08012 | 22.94707 | 36135 ft | 442 kts | 237° |
| 2026-05-08 18:25 | 54.04764 | 22.88102 | 36158 ft | 437 kts | 219° |
| 2026-05-08 18:25 | 53.99710 | 22.82436 | 36163 ft | 435 kts | 209° |
| 2026-05-08 18:26 | 53.94457 | 22.77259 | 36155 ft | 436 kts | 209° |
| 2026-05-08 18:26 | 53.89202 | 22.72039 | 36150 ft | 437 kts | 210° |
| 2026-05-08 18:27 | 53.84848 | 22.67676 | 36149 ft | 438 kts | 210° |
| 2026-05-08 18:27 | 53.78715 | 22.61688 | 36147 ft | 438 kts | 208° |
| 2026-05-08 18:28 | 53.73338 | 22.56772 | 36145 ft | 439 kts | 207° |
| 2026-05-08 18:28 | 53.67955 | 22.51873 | 36146 ft | 439 kts | 207° |
| 2026-05-08 18:29 | 53.62604 | 22.46977 | 36143 ft | 440 kts | 208° |
| 2026-05-08 18:29 | 53.57209 | 22.42031 | 36155 ft | 440 kts | 208° |
| 2026-05-08 18:30 | 53.51821 | 22.37101 | 36148 ft | 441 kts | 208° |
| 2026-05-08 18:30 | 53.46429 | 22.32181 | 36149 ft | 441 kts | 208° |
| 2026-05-08 18:31 | 53.41025 | 22.27265 | 36154 ft | 441 kts | 208° |
| 2026-05-08 18:31 | 53.35650 | 22.22391 | 36152 ft | 441 kts | 208° |
| 2026-05-08 18:32 | 53.30245 | 22.17504 | 36144 ft | 442 kts | 208° |
| 2026-05-08 18:32 | 53.24826 | 22.12618 | 36148 ft | 442 kts | 208° |
| 2026-05-08 18:33 | 53.19411 | 22.07750 | 36146 ft | 442 kts | 208° |
| 2026-05-08 18:33 | 53.13996 | 22.02897 | 36154 ft | 442 kts | 209° |
| 2026-05-08 18:34 | 53.08582 | 21.98057 | 36148 ft | 441 kts | 209° |
| 2026-05-08 18:34 | 53.03200 | 21.93260 | 36154 ft | 441 kts | 209° |
| 2026-05-08 18:35 | 52.97783 | 21.88446 | 36142 ft | 441 kts | 209° |
| 2026-05-08 18:35 | 52.92357 | 21.83638 | 36146 ft | 441 kts | 209° |
| 2026-05-08 18:36 | 52.86944 | 21.78855 | 36148 ft | 441 kts | 209° |
| 2026-05-08 18:36 | 52.81538 | 21.74091 | 36144 ft | 440 kts | 209° |
| 2026-05-08 18:37 | 52.76122 | 21.69333 | 36139 ft | 440 kts | 209° |
| 2026-05-08 18:37 | 52.70743 | 21.64621 | 36135 ft | 440 kts | 210° |
| 2026-05-08 18:38 | 52.65334 | 21.59895 | 36142 ft | 440 kts | 210° |
| 2026-05-08 18:38 | 52.59923 | 21.55181 | 36138 ft | 439 kts | 210° |
| 2026-05-08 18:39 | 52.54544 | 21.50507 | 36147 ft | 439 kts | 210° |
| 2026-05-08 18:39 | 52.49123 | 21.45811 | 36138 ft | 439 kts | 210° |
| 2026-05-08 18:40 | 52.43715 | 21.41139 | 36144 ft | 439 kts | 210° |
| 2026-05-08 18:40 | 52.38311 | 21.36484 | 36137 ft | 439 kts | 210° |
| 2026-05-08 18:41 | 52.32896 | 21.31831 | 36140 ft | 439 kts | 210° |
| 2026-05-08 18:41 | 52.27486 | 21.27197 | 36128 ft | 438 kts | 210° |
| 2026-05-08 18:42 | 52.22116 | 21.22609 | 36132 ft | 438 kts | 210° |
| 2026-05-08 18:42 | 52.16713 | 21.18005 | 36133 ft | 438 kts | 210° |
| 2026-05-08 18:43 | 52.11313 | 21.13417 | 36130 ft | 438 kts | 210° |
| 2026-05-08 18:43 | 52.05902 | 21.08832 | 36125 ft | 437 kts | 210° |
| 2026-05-08 18:44 | 52.00542 | 21.04304 | 36139 ft | 437 kts | 210° |
| 2026-05-08 18:44 | 51.95146 | 20.99756 | 36135 ft | 436 kts | 210° |
| 2026-05-08 18:45 | 51.89754 | 20.95224 | 36137 ft | 436 kts | 210° |
| 2026-05-08 18:45 | 51.84357 | 20.90701 | 36119 ft | 436 kts | 211° |
| 2026-05-08 18:46 | 51.78973 | 20.86201 | 36128 ft | 435 kts | 211° |
| 2026-05-08 18:46 | 51.73619 | 20.81738 | 36132 ft | 435 kts | 211° |
| 2026-05-08 18:47 | 51.68249 | 20.77273 | 36130 ft | 434 kts | 211° |
| 2026-05-08 18:47 | 51.65539 | 20.75023 | 35646 ft | 440 kts | 211° |
| 2026-05-08 18:47 | 51.62825 | 20.72774 | 35067 ft | 438 kts | 211° |
| 2026-05-08 18:48 | 51.60106 | 20.70525 | 34454 ft | 438 kts | 211° |
| 2026-05-08 18:48 | 51.57392 | 20.68283 | 33715 ft | 439 kts | 211° |
| 2026-05-08 18:48 | 51.54665 | 20.66032 | 32956 ft | 440 kts | 211° |
| 2026-05-08 18:48 | 51.51948 | 20.63793 | 32231 ft | 439 kts | 211° |
| 2026-05-08 18:49 | 51.49231 | 20.61558 | 31493 ft | 439 kts | 211° |
| 2026-05-08 18:49 | 51.46509 | 20.59321 | 30824 ft | 438 kts | 211° |
| 2026-05-08 18:49 | 51.43817 | 20.57114 | 30318 ft | 432 kts | 211° |
| 2026-05-08 18:49 | 51.41148 | 20.54929 | 29693 ft | 428 kts | 211° |
| 2026-05-08 18:50 | 51.38518 | 20.52779 | 29164 ft | 421 kts | 211° |
| 2026-05-08 18:50 | 51.35924 | 20.50660 | 28631 ft | 415 kts | 211° |
| 2026-05-08 18:50 | 51.33402 | 20.48601 | 28103 ft | 410 kts | 211° |
| 2026-05-08 18:50 | 51.30872 | 20.46537 | 27565 ft | 406 kts | 211° |
| 2026-05-08 18:51 | 51.28374 | 20.44501 | 27059 ft | 402 kts | 211° |
| 2026-05-08 18:51 | 51.25888 | 20.42477 | 26548 ft | 398 kts | 211° |
| 2026-05-08 18:51 | 51.23431 | 20.40480 | 26032 ft | 395 kts | 211° |
| 2026-05-08 18:51 | 51.20997 | 20.38504 | 25509 ft | 391 kts | 211° |
| 2026-05-08 18:52 | 51.18581 | 20.36546 | 25226 ft | 384 kts | 211° |
| 2026-05-08 18:52 | 51.16225 | 20.34640 | 25164 ft | 377 kts | 211° |
| 2026-05-08 18:52 | 51.13909 | 20.32769 | 24924 ft | 368 kts | 211° |
| 2026-05-08 18:52 | 51.11652 | 20.30946 | 24304 ft | 363 kts | 211° |
| 2026-05-08 18:53 | 51.09382 | 20.29110 | 23158 ft | 370 kts | 210° |
| 2026-05-08 18:53 | 51.07061 | 20.27234 | 22574 ft | 371 kts | 210° |
| 2026-05-08 18:53 | 51.04785 | 20.25401 | 22014 ft | 370 kts | 210° |
| 2026-05-08 18:53 | 51.02496 | 20.23561 | 21531 ft | 367 kts | 210° |
| 2026-05-08 18:54 | 51.00224 | 20.21736 | 21048 ft | 365 kts | 210° |
| 2026-05-08 18:54 | 50.97964 | 20.19922 | 20563 ft | 362 kts | 210° |
| 2026-05-08 18:54 | 50.95716 | 20.18120 | 20096 ft | 360 kts | 210° |
| 2026-05-08 18:54 | 50.93485 | 20.16333 | 19629 ft | 358 kts | 210° |
| 2026-05-08 18:55 | 50.89061 | 20.12794 | 18712 ft | 355 kts | 210° |
| 2026-05-08 18:55 | 50.86865 | 20.11040 | 18224 ft | 353 kts | 210° |
| 2026-05-08 18:55 | 50.84692 | 20.09307 | 17721 ft | 352 kts | 210° |
| 2026-05-08 18:56 | 50.82515 | 20.07573 | 17222 ft | 350 kts | 210° |
| 2026-05-08 18:56 | 50.80546 | 20.05386 | 16747 ft | 342 kts | 228° |
| 2026-05-08 18:56 | 50.79143 | 20.02416 | 16291 ft | 337 kts | 240° |
| 2026-05-08 18:56 | 50.77975 | 19.99215 | 15860 ft | 334 kts | 242° |
| 2026-05-08 18:57 | 50.76826 | 19.96038 | 15402 ft | 332 kts | 241° |
| 2026-05-08 18:57 | 50.76057 | 19.93949 | 15111 ft | 331 kts | 241° |
| 2026-05-08 18:57 | 50.74493 | 19.89755 | 14530 ft | 329 kts | 240° |
| 2026-05-08 18:57 | 50.73342 | 19.86697 | 14112 ft | 327 kts | 240° |
| 2026-05-08 18:58 | 50.72182 | 19.83623 | 13649 ft | 325 kts | 240° |
| 2026-05-08 18:58 | 50.71025 | 19.80561 | 13183 ft | 324 kts | 240° |
| 2026-05-08 18:58 | 50.69877 | 19.77523 | 12814 ft | 319 kts | 240° |
| 2026-05-08 18:58 | 50.68759 | 19.74566 | 12689 ft | 308 kts | 240° |
| 2026-05-08 18:59 | 50.67675 | 19.71705 | 12542 ft | 299 kts | 240° |
| 2026-05-08 18:59 | 50.66624 | 19.68938 | 12412 ft | 289 kts | 240° |
| 2026-05-08 18:59 | 50.65617 | 19.66265 | 12303 ft | 276 kts | 243° |
| 2026-05-08 18:59 | 50.65078 | 19.63437 | 11832 ft | 271 kts | 265° |
| 2026-05-08 19:00 | 50.65057 | 19.61466 | 11414 ft | 273 kts | 272° |
| 2026-05-08 19:00 | 50.65245 | 19.57442 | 10515 ft | 279 kts | 274° |
| 2026-05-08 19:00 | 50.65404 | 19.54343 | 9753 ft | 287 kts | 274° |
| 2026-05-08 19:00 | 50.65554 | 19.51200 | 9092 ft | 287 kts | 274° |
| 2026-05-08 19:01 | 50.65621 | 19.48099 | 8454 ft | 287 kts | 270° |
| 2026-05-08 19:01 | 50.65604 | 19.44956 | 7747 ft | 288 kts | 264° |
| 2026-05-08 19:01 | 50.64955 | 19.41980 | 7087 ft | 290 kts | 238° |
| 2026-05-08 19:01 | 50.63553 | 19.39732 | 6559 ft | 287 kts | 214° |
| 2026-05-08 19:02 | 50.61730 | 19.38510 | 5977 ft | 286 kts | 192° |
| 2026-05-08 19:02 | 50.59756 | 19.38342 | 5604 ft | 278 kts | 181° |
| 2026-05-08 19:02 | 50.57846 | 19.38324 | 5268 ft | 269 kts | 181° |
| 2026-05-08 19:02 | 50.55998 | 19.38306 | 4985 ft | 260 kts | 181° |
| 2026-05-08 19:03 | 50.54250 | 19.38294 | 4837 ft | 248 kts | 181° |
| 2026-05-08 19:03 | 50.52552 | 19.38280 | 4721 ft | 241 kts | 181° |
| 2026-05-08 19:03 | 50.50897 | 19.38263 | 4549 ft | 236 kts | 181° |
| 2026-05-08 19:03 | 50.49258 | 19.38223 | 4315 ft | 234 kts | 186° |
| 2026-05-08 19:04 | 50.47805 | 19.37300 | 4075 ft | 224 kts | 225° |
| 2026-05-08 19:04 | 50.47133 | 19.35206 | 3865 ft | 213 kts | 268° |
| 2026-05-08 19:04 | 50.47355 | 19.32981 | 3705 ft | 202 kts | 282° |
| 2026-05-08 19:04 | 50.47525 | 19.30828 | 3503 ft | 196 kts | 274° |
| 2026-05-08 19:05 | 50.47559 | 19.28728 | 3347 ft | 186 kts | 272° |
| 2026-05-08 19:05 | 50.47575 | 19.26736 | 3159 ft | 180 kts | 272° |
| 2026-05-08 19:05 | 50.47579 | 19.24816 | 2928 ft | 176 kts | 272° |
| 2026-05-08 19:05 | 50.47579 | 19.22917 | 2696 ft | 171 kts | 272° |
| 2026-05-08 19:06 | 50.47580 | 19.21109 | 2465 ft | 161 kts | 272° |
| 2026-05-08 19:06 | 50.47582 | 19.19385 | 2250 ft | 156 kts | 273° |
| 2026-05-08 19:06 | 50.47584 | 19.17703 | 2062 ft | 154 kts | 273° |
| 2026-05-08 19:06 | 50.47587 | 19.16033 | 1829 ft | 151 kts | 273° |
| 2026-05-08 19:07 | 50.47589 | 19.14410 | 1610 ft | 148 kts | 272° |
| 2026-05-08 19:07 | 50.47590 | 19.12821 | 1405 ft | 146 kts | 271° |
| 2026-05-08 19:07 | 50.47589 | 19.11231 | 1187 ft | 145 kts | 272° |
| 2026-05-08 19:07 | 50.47595 | 19.09682 | 999 ft | 136 kts | 272° |
| 2026-05-08 19:08 | 50.47600 | 19.08397 | 996 ft | 97 kts | 270° |
| 2026-05-08 19:08 | 50.47601 | 19.07598 | 1000 ft | 55 kts | 270° |
| 2026-05-08 19:08 | 50.47573 | 19.07116 | 1001 ft | 38 kts | 251° |
| 2026-05-08 19:08 | 50.47498 | 19.06880 | 1004 ft | 0 kts | 240° |
| 2026-05-08 19:09 | 50.47497 | 19.06876 | 1004 ft | 2 kts | 240° |
| 2026-05-08 19:09 | 50.47476 | 19.06818 | 997 ft | 11 kts | 241° |
| 2026-05-08 19:10 | 50.47444 | 19.06727 | 1002 ft | 8 kts | 241° |
| 2026-05-08 19:10 | 50.47426 | 19.06678 | 999 ft | 8 kts | 236° |
| 2026-05-08 19:10 | 50.47377 | 19.06624 | 1000 ft | 10 kts | 181° |
| 2026-05-08 19:10 | 50.47278 | 19.06626 | 998 ft | 11 kts | 173° |
| 2026-05-08 19:11 | 50.47240 | 19.06673 | 997 ft | 11 kts | 114° |
| 2026-05-08 19:11 | 50.47236 | 19.06787 | 997 ft | 10 kts | 90° |
| 2026-05-08 19:11 | 50.47236 | 19.06884 | 997 ft | 7 kts | 89° |
| 2026-05-08 19:11 | 50.47236 | 19.06928 | 997 ft | 1 kts | 94° |
| 2026-05-08 19:12 | 50.47232 | 19.06939 | 1000 ft | 3 kts | 125° |
| 2026-05-08 19:12 | 50.47213 | 19.06951 | 997 ft | 3 kts | 167° |
| 2026-05-08 19:12 | 50.47193 | 19.06952 | 997 ft | 3 kts | 179° |
| 2026-05-08 19:12 | 50.47175 | 19.06952 | 997 ft | 3 kts | 180° |
| 2026-05-08 19:13 | 50.47166 | 19.06952 | 1000 ft | 0 kts | 180° |